sensor_id;sensor_type;location;lat;lon;timestamp;P1;durP1;ratioP1;P2;durP2;ratioP2
20306;SDS011;10312;52.434;13.206;2024-01-06T00:01:13;50.30;;;26.48;;
20306;SDS011;10312;52.434;13.206;2024-01-06T00:03:42;53.10;;;26.98;;
20306;SDS011;10312;52.434;13.206;2024-01-06T00:06:15;51.08;;;27.05;;
20306;SDS011;10312;52.434;13.206;2024-01-06T00:08:42;53.58;;;27.10;;
20306;SDS011;10312;52.434;13.206;2024-01-06T00:11:09;55.22;;;27.50;;
20306;SDS011;10312;52.434;13.206;2024-01-06T00:13:36;53.00;;;28.38;;
20306;SDS011;10312;52.434;13.206;2024-01-06T00:16:02;54.53;;;27.58;;
20306;SDS011;10312;52.434;13.206;2024-01-06T00:18:29;56.08;;;26.98;;
20306;SDS011;10312;52.434;13.206;2024-01-06T00:20:56;57.38;;;27.33;;
20306;SDS011;10312;52.434;13.206;2024-01-06T00:23:23;57.83;;;27.48;;
20306;SDS011;10312;52.434;13.206;2024-01-06T00:25:50;53.15;;;25.52;;
20306;SDS011;10312;52.434;13.206;2024-01-06T00:28:17;53.25;;;25.92;;
20306;SDS011;10312;52.434;13.206;2024-01-06T00:30:43;56.17;;;27.38;;
20306;SDS011;10312;52.434;13.206;2024-01-06T00:33:10;56.47;;;27.27;;
20306;SDS011;10312;52.434;13.206;2024-01-06T00:35:37;55.20;;;26.63;;
20306;SDS011;10312;52.434;13.206;2024-01-06T00:38:04;55.10;;;27.65;;
20306;SDS011;10312;52.434;13.206;2024-01-06T00:40:30;55.13;;;27.15;;
20306;SDS011;10312;52.434;13.206;2024-01-06T00:42:59;59.75;;;27.55;;
20306;SDS011;10312;52.434;13.206;2024-01-06T00:45:25;55.65;;;25.98;;
20306;SDS011;10312;52.434;13.206;2024-01-06T00:47:52;57.55;;;26.55;;
20306;SDS011;10312;52.434;13.206;2024-01-06T00:50:19;57.42;;;26.13;;
20306;SDS011;10312;52.434;13.206;2024-01-06T00:52:47;58.60;;;26.77;;
20306;SDS011;10312;52.434;13.206;2024-01-06T00:55:13;55.47;;;26.30;;
20306;SDS011;10312;52.434;13.206;2024-01-06T00:57:40;55.88;;;27.45;;
20306;SDS011;10312;52.434;13.206;2024-01-06T01:00:07;55.20;;;26.35;;
20306;SDS011;10312;52.434;13.206;2024-01-06T01:02:34;59.00;;;27.73;;
20306;SDS011;10312;52.434;13.206;2024-01-06T01:05:05;62.00;;;27.67;;
20306;SDS011;10312;52.434;13.206;2024-01-06T01:07:34;60.00;;;28.08;;
20306;SDS011;10312;52.434;13.206;2024-01-06T01:10:00;59.03;;;26.80;;
20306;SDS011;10312;52.434;13.206;2024-01-06T01:12:27;56.25;;;26.83;;
20306;SDS011;10312;52.434;13.206;2024-01-06T01:14:54;52.85;;;25.13;;
20306;SDS011;10312;52.434;13.206;2024-01-06T01:17:21;55.13;;;27.70;;
20306;SDS011;10312;52.434;13.206;2024-01-06T01:19:48;52.53;;;26.83;;
20306;SDS011;10312;52.434;13.206;2024-01-06T01:22:16;53.13;;;26.48;;
20306;SDS011;10312;52.434;13.206;2024-01-06T01:24:43;59.55;;;28.98;;
20306;SDS011;10312;52.434;13.206;2024-01-06T01:27:10;58.40;;;27.30;;
20306;SDS011;10312;52.434;13.206;2024-01-06T01:29:37;54.75;;;27.65;;
20306;SDS011;10312;52.434;13.206;2024-01-06T01:32:04;57.75;;;28.95;;
20306;SDS011;10312;52.434;13.206;2024-01-06T01:34:32;53.08;;;27.20;;
20306;SDS011;10312;52.434;13.206;2024-01-06T01:36:59;59.17;;;28.75;;
20306;SDS011;10312;52.434;13.206;2024-01-06T01:39:26;53.58;;;26.70;;
20306;SDS011;10312;52.434;13.206;2024-01-06T01:41:53;54.70;;;26.98;;
20306;SDS011;10312;52.434;13.206;2024-01-06T01:44:19;54.17;;;27.38;;
20306;SDS011;10312;52.434;13.206;2024-01-06T01:46:47;50.63;;;26.20;;
20306;SDS011;10312;52.434;13.206;2024-01-06T01:49:14;54.53;;;27.88;;
20306;SDS011;10312;52.434;13.206;2024-01-06T01:51:41;52.83;;;26.70;;
20306;SDS011;10312;52.434;13.206;2024-01-06T01:54:10;49.22;;;24.95;;
20306;SDS011;10312;52.434;13.206;2024-01-06T01:56:37;55.45;;;26.40;;
20306;SDS011;10312;52.434;13.206;2024-01-06T01:59:08;54.78;;;26.23;;
20306;SDS011;10312;52.434;13.206;2024-01-06T02:01:36;55.58;;;26.13;;
20306;SDS011;10312;52.434;13.206;2024-01-06T02:04:03;52.42;;;25.48;;
20306;SDS011;10312;52.434;13.206;2024-01-06T02:06:30;54.58;;;25.55;;
20306;SDS011;10312;52.434;13.206;2024-01-06T02:08:57;50.90;;;26.08;;
20306;SDS011;10312;52.434;13.206;2024-01-06T02:11:24;50.67;;;26.40;;
20306;SDS011;10312;52.434;13.206;2024-01-06T02:13:50;53.05;;;25.52;;
20306;SDS011;10312;52.434;13.206;2024-01-06T02:16:17;50.95;;;24.00;;
20306;SDS011;10312;52.434;13.206;2024-01-06T02:18:44;55.35;;;26.70;;
20306;SDS011;10312;52.434;13.206;2024-01-06T02:21:11;49.20;;;25.05;;
20306;SDS011;10312;52.434;13.206;2024-01-06T02:23:38;51.92;;;25.20;;
20306;SDS011;10312;52.434;13.206;2024-01-06T02:26:04;48.67;;;24.70;;
20306;SDS011;10312;52.434;13.206;2024-01-06T02:28:31;51.22;;;26.20;;
20306;SDS011;10312;52.434;13.206;2024-01-06T02:30:58;52.25;;;25.75;;
20306;SDS011;10312;52.434;13.206;2024-01-06T02:33:25;46.80;;;24.17;;
20306;SDS011;10312;52.434;13.206;2024-01-06T02:35:52;45.47;;;23.88;;
20306;SDS011;10312;52.434;13.206;2024-01-06T02:38:18;45.38;;;24.20;;
20306;SDS011;10312;52.434;13.206;2024-01-06T02:40:45;49.33;;;23.98;;
20306;SDS011;10312;52.434;13.206;2024-01-06T02:43:12;46.53;;;23.95;;
20306;SDS011;10312;52.434;13.206;2024-01-06T02:45:39;52.22;;;24.88;;
20306;SDS011;10312;52.434;13.206;2024-01-06T02:48:05;53.22;;;25.42;;
20306;SDS011;10312;52.434;13.206;2024-01-06T02:50:33;47.20;;;23.95;;
20306;SDS011;10312;52.434;13.206;2024-01-06T02:52:59;52.10;;;24.75;;
20306;SDS011;10312;52.434;13.206;2024-01-06T02:55:26;44.83;;;22.73;;
20306;SDS011;10312;52.434;13.206;2024-01-06T02:57:53;46.28;;;23.38;;
20306;SDS011;10312;52.434;13.206;2024-01-06T03:00:20;47.42;;;24.08;;
20306;SDS011;10312;52.434;13.206;2024-01-06T03:02:47;47.05;;;24.63;;
20306;SDS011;10312;52.434;13.206;2024-01-06T03:05:13;47.00;;;24.55;;
20306;SDS011;10312;52.434;13.206;2024-01-06T03:07:40;44.28;;;22.85;;
20306;SDS011;10312;52.434;13.206;2024-01-06T03:10:07;47.03;;;23.73;;
20306;SDS011;10312;52.434;13.206;2024-01-06T03:12:34;46.40;;;23.83;;
20306;SDS011;10312;52.434;13.206;2024-01-06T03:15:00;46.65;;;23.30;;
20306;SDS011;10312;52.434;13.206;2024-01-06T03:17:27;43.03;;;22.40;;
20306;SDS011;10312;52.434;13.206;2024-01-06T03:19:56;45.30;;;23.67;;
20306;SDS011;10312;52.434;13.206;2024-01-06T03:22:23;44.97;;;22.02;;
20306;SDS011;10312;52.434;13.206;2024-01-06T03:24:50;48.38;;;22.67;;
20306;SDS011;10312;52.434;13.206;2024-01-06T03:27:17;44.13;;;23.27;;
20306;SDS011;10312;52.434;13.206;2024-01-06T03:29:43;50.65;;;24.00;;
20306;SDS011;10312;52.434;13.206;2024-01-06T03:32:10;46.13;;;22.75;;
20306;SDS011;10312;52.434;13.206;2024-01-06T03:34:37;48.40;;;23.73;;
20306;SDS011;10312;52.434;13.206;2024-01-06T03:37:05;48.92;;;23.60;;
20306;SDS011;10312;52.434;13.206;2024-01-06T03:39:31;47.17;;;21.50;;
20306;SDS011;10312;52.434;13.206;2024-01-06T03:41:59;45.58;;;21.42;;
20306;SDS011;10312;52.434;13.206;2024-01-06T03:44:26;53.78;;;23.55;;
20306;SDS011;10312;52.434;13.206;2024-01-06T03:46:57;45.20;;;23.23;;
20306;SDS011;10312;52.434;13.206;2024-01-06T03:49:24;45.38;;;21.52;;
20306;SDS011;10312;52.434;13.206;2024-01-06T03:51:51;50.92;;;23.25;;
20306;SDS011;10312;52.434;13.206;2024-01-06T03:54:18;42.88;;;21.80;;
20306;SDS011;10312;52.434;13.206;2024-01-06T03:56:45;45.67;;;22.67;;
20306;SDS011;10312;52.434;13.206;2024-01-06T03:59:11;42.45;;;21.75;;
20306;SDS011;10312;52.434;13.206;2024-01-06T04:01:38;47.05;;;23.38;;
20306;SDS011;10312;52.434;13.206;2024-01-06T04:04:05;44.53;;;21.58;;
20306;SDS011;10312;52.434;13.206;2024-01-06T04:06:32;44.58;;;20.83;;
20306;SDS011;10312;52.434;13.206;2024-01-06T04:08:59;44.97;;;22.48;;
20306;SDS011;10312;52.434;13.206;2024-01-06T04:11:27;41.63;;;21.15;;
20306;SDS011;10312;52.434;13.206;2024-01-06T04:13:53;44.17;;;21.48;;
20306;SDS011;10312;52.434;13.206;2024-01-06T04:16:20;40.83;;;20.58;;
20306;SDS011;10312;52.434;13.206;2024-01-06T04:18:47;42.65;;;21.27;;
20306;SDS011;10312;52.434;13.206;2024-01-06T04:21:14;48.50;;;23.65;;
20306;SDS011;10312;52.434;13.206;2024-01-06T04:23:40;44.70;;;22.17;;
20306;SDS011;10312;52.434;13.206;2024-01-06T04:26:07;42.67;;;21.20;;
20306;SDS011;10312;52.434;13.206;2024-01-06T04:28:34;41.70;;;21.73;;
20306;SDS011;10312;52.434;13.206;2024-01-06T04:31:01;44.58;;;20.98;;
20306;SDS011;10312;52.434;13.206;2024-01-06T04:33:28;47.25;;;22.50;;
20306;SDS011;10312;52.434;13.206;2024-01-06T04:35:54;40.72;;;21.10;;
20306;SDS011;10312;52.434;13.206;2024-01-06T04:38:21;46.05;;;21.02;;
20306;SDS011;10312;52.434;13.206;2024-01-06T04:40:48;46.67;;;22.92;;
20306;SDS011;10312;52.434;13.206;2024-01-06T04:43:15;45.15;;;22.52;;
20306;SDS011;10312;52.434;13.206;2024-01-06T04:45:41;44.83;;;22.52;;
20306;SDS011;10312;52.434;13.206;2024-01-06T04:48:08;48.50;;;21.20;;
20306;SDS011;10312;52.434;13.206;2024-01-06T04:50:35;50.20;;;22.88;;
20306;SDS011;10312;52.434;13.206;2024-01-06T04:53:02;45.55;;;22.83;;
20306;SDS011;10312;52.434;13.206;2024-01-06T04:55:29;46.40;;;21.95;;
20306;SDS011;10312;52.434;13.206;2024-01-06T04:57:56;50.58;;;23.23;;
20306;SDS011;10312;52.434;13.206;2024-01-06T05:00:22;50.83;;;24.00;;
20306;SDS011;10312;52.434;13.206;2024-01-06T05:02:49;51.15;;;27.92;;
20306;SDS011;10312;52.434;13.206;2024-01-06T05:05:16;48.33;;;24.52;;
20306;SDS011;10312;52.434;13.206;2024-01-06T05:07:43;50.70;;;23.25;;
20306;SDS011;10312;52.434;13.206;2024-01-06T05:10:10;53.72;;;24.13;;
20306;SDS011;10312;52.434;13.206;2024-01-06T05:12:37;52.85;;;23.88;;
20306;SDS011;10312;52.434;13.206;2024-01-06T05:15:04;45.80;;;23.80;;
20306;SDS011;10312;52.434;13.206;2024-01-06T05:17:31;52.60;;;24.55;;
20306;SDS011;10312;52.434;13.206;2024-01-06T05:19:58;43.40;;;21.83;;
20306;SDS011;10312;52.434;13.206;2024-01-06T05:22:25;52.70;;;24.13;;
20306;SDS011;10312;52.434;13.206;2024-01-06T05:24:51;48.47;;;22.48;;
20306;SDS011;10312;52.434;13.206;2024-01-06T05:27:20;50.78;;;22.40;;
20306;SDS011;10312;52.434;13.206;2024-01-06T05:29:47;44.42;;;21.67;;
20306;SDS011;10312;52.434;13.206;2024-01-06T05:32:16;51.08;;;23.80;;
20306;SDS011;10312;52.434;13.206;2024-01-06T05:34:43;49.28;;;22.58;;
20306;SDS011;10312;52.434;13.206;2024-01-06T05:37:11;50.65;;;22.80;;
20306;SDS011;10312;52.434;13.206;2024-01-06T05:39:38;48.50;;;22.40;;
20306;SDS011;10312;52.434;13.206;2024-01-06T05:42:07;49.78;;;23.63;;
20306;SDS011;10312;52.434;13.206;2024-01-06T05:44:35;48.40;;;23.27;;
20306;SDS011;10312;52.434;13.206;2024-01-06T05:47:03;48.42;;;23.77;;
20306;SDS011;10312;52.434;13.206;2024-01-06T05:49:30;51.90;;;24.52;;
20306;SDS011;10312;52.434;13.206;2024-01-06T05:51:57;50.60;;;23.92;;
20306;SDS011;10312;52.434;13.206;2024-01-06T05:54:24;51.83;;;23.65;;
20306;SDS011;10312;52.434;13.206;2024-01-06T05:56:51;48.47;;;22.73;;
20306;SDS011;10312;52.434;13.206;2024-01-06T05:59:18;48.55;;;23.45;;
20306;SDS011;10312;52.434;13.206;2024-01-06T06:01:45;53.90;;;24.85;;
20306;SDS011;10312;52.434;13.206;2024-01-06T06:04:11;46.15;;;22.33;;
20306;SDS011;10312;52.434;13.206;2024-01-06T06:06:39;54.00;;;25.85;;
20306;SDS011;10312;52.434;13.206;2024-01-06T06:09:06;53.28;;;25.08;;
20306;SDS011;10312;52.434;13.206;2024-01-06T06:11:33;50.00;;;25.05;;
20306;SDS011;10312;52.434;13.206;2024-01-06T06:14:00;52.70;;;24.85;;
20306;SDS011;10312;52.434;13.206;2024-01-06T06:16:29;58.42;;;26.50;;
20306;SDS011;10312;52.434;13.206;2024-01-06T06:18:56;53.53;;;24.92;;
20306;SDS011;10312;52.434;13.206;2024-01-06T06:21:23;54.78;;;25.40;;
20306;SDS011;10312;52.434;13.206;2024-01-06T06:23:50;55.63;;;25.50;;
20306;SDS011;10312;52.434;13.206;2024-01-06T06:26:17;58.67;;;26.63;;
20306;SDS011;10312;52.434;13.206;2024-01-06T06:28:44;57.13;;;24.92;;
20306;SDS011;10312;52.434;13.206;2024-01-06T06:31:10;60.90;;;26.23;;
20306;SDS011;10312;52.434;13.206;2024-01-06T06:33:38;54.35;;;25.35;;
20306;SDS011;10312;52.434;13.206;2024-01-06T06:36:06;56.97;;;25.63;;
20306;SDS011;10312;52.434;13.206;2024-01-06T06:38:33;58.40;;;26.00;;
20306;SDS011;10312;52.434;13.206;2024-01-06T06:40:59;58.95;;;25.92;;
20306;SDS011;10312;52.434;13.206;2024-01-06T06:43:26;55.00;;;25.23;;
20306;SDS011;10312;52.434;13.206;2024-01-06T06:45:53;55.03;;;25.23;;
20306;SDS011;10312;52.434;13.206;2024-01-06T06:48:22;59.08;;;26.48;;
20306;SDS011;10312;52.434;13.206;2024-01-06T06:50:49;58.95;;;26.20;;
20306;SDS011;10312;52.434;13.206;2024-01-06T06:53:15;59.03;;;27.63;;
20306;SDS011;10312;52.434;13.206;2024-01-06T06:55:42;54.17;;;25.98;;
20306;SDS011;10312;52.434;13.206;2024-01-06T06:58:09;54.88;;;25.65;;
20306;SDS011;10312;52.434;13.206;2024-01-06T07:00:36;61.53;;;26.75;;
20306;SDS011;10312;52.434;13.206;2024-01-06T07:03:04;64.30;;;26.95;;
20306;SDS011;10312;52.434;13.206;2024-01-06T07:05:31;53.47;;;25.88;;
20306;SDS011;10312;52.434;13.206;2024-01-06T07:08:00;55.35;;;25.80;;
20306;SDS011;10312;52.434;13.206;2024-01-06T07:10:27;57.80;;;25.80;;
20306;SDS011;10312;52.434;13.206;2024-01-06T07:12:53;62.30;;;27.35;;
20306;SDS011;10312;52.434;13.206;2024-01-06T07:15:20;53.15;;;26.17;;
20306;SDS011;10312;52.434;13.206;2024-01-06T07:17:48;62.55;;;26.67;;
20306;SDS011;10312;52.434;13.206;2024-01-06T07:20:15;57.67;;;27.10;;
20306;SDS011;10312;52.434;13.206;2024-01-06T07:22:42;58.47;;;26.23;;
20306;SDS011;10312;52.434;13.206;2024-01-06T07:25:09;55.70;;;26.08;;
20306;SDS011;10312;52.434;13.206;2024-01-06T07:27:36;54.50;;;25.15;;
20306;SDS011;10312;52.434;13.206;2024-01-06T07:30:03;59.22;;;25.67;;
20306;SDS011;10312;52.434;13.206;2024-01-06T07:32:30;56.22;;;25.67;;
20306;SDS011;10312;52.434;13.206;2024-01-06T07:34:57;56.28;;;24.63;;
20306;SDS011;10312;52.434;13.206;2024-01-06T07:37:25;52.20;;;23.48;;
20306;SDS011;10312;52.434;13.206;2024-01-06T07:39:52;51.17;;;24.40;;
20306;SDS011;10312;52.434;13.206;2024-01-06T07:42:19;53.17;;;24.13;;
20306;SDS011;10312;52.434;13.206;2024-01-06T07:44:45;52.78;;;25.52;;
20306;SDS011;10312;52.434;13.206;2024-01-06T07:47:13;52.20;;;23.55;;
20306;SDS011;10312;52.434;13.206;2024-01-06T07:49:40;50.28;;;23.33;;
20306;SDS011;10312;52.434;13.206;2024-01-06T07:52:07;49.60;;;23.60;;
20306;SDS011;10312;52.434;13.206;2024-01-06T07:54:34;57.65;;;22.83;;
20306;SDS011;10312;52.434;13.206;2024-01-06T07:57:01;57.10;;;25.00;;
20306;SDS011;10312;52.434;13.206;2024-01-06T07:59:28;54.42;;;24.27;;
20306;SDS011;10312;52.434;13.206;2024-01-06T08:01:55;56.13;;;24.15;;
20306;SDS011;10312;52.434;13.206;2024-01-06T08:04:22;61.13;;;24.75;;
20306;SDS011;10312;52.434;13.206;2024-01-06T08:06:49;55.40;;;24.13;;
20306;SDS011;10312;52.434;13.206;2024-01-06T08:09:19;50.45;;;23.42;;
20306;SDS011;10312;52.434;13.206;2024-01-06T08:11:46;51.50;;;22.25;;
20306;SDS011;10312;52.434;13.206;2024-01-06T08:14:15;52.38;;;22.80;;
20306;SDS011;10312;52.434;13.206;2024-01-06T08:16:43;59.53;;;24.15;;
20306;SDS011;10312;52.434;13.206;2024-01-06T08:19:10;57.15;;;24.92;;
20306;SDS011;10312;52.434;13.206;2024-01-06T08:21:37;55.60;;;24.10;;
20306;SDS011;10312;52.434;13.206;2024-01-06T08:24:04;54.50;;;24.65;;
20306;SDS011;10312;52.434;13.206;2024-01-06T08:26:31;55.05;;;24.08;;
20306;SDS011;10312;52.434;13.206;2024-01-06T08:28:58;59.65;;;23.85;;
20306;SDS011;10312;52.434;13.206;2024-01-06T08:31:25;55.35;;;24.58;;
20306;SDS011;10312;52.434;13.206;2024-01-06T08:33:51;60.67;;;25.05;;
20306;SDS011;10312;52.434;13.206;2024-01-06T08:36:18;56.65;;;23.60;;
20306;SDS011;10312;52.434;13.206;2024-01-06T08:38:45;56.22;;;23.77;;
20306;SDS011;10312;52.434;13.206;2024-01-06T08:41:12;58.72;;;26.40;;
20306;SDS011;10312;52.434;13.206;2024-01-06T08:43:39;57.40;;;23.85;;
20306;SDS011;10312;52.434;13.206;2024-01-06T08:46:06;58.20;;;25.20;;
20306;SDS011;10312;52.434;13.206;2024-01-06T08:48:32;60.53;;;25.10;;
20306;SDS011;10312;52.434;13.206;2024-01-06T08:51:01;59.42;;;24.75;;
20306;SDS011;10312;52.434;13.206;2024-01-06T08:53:28;57.05;;;25.98;;
20306;SDS011;10312;52.434;13.206;2024-01-06T08:55:55;61.72;;;24.98;;
20306;SDS011;10312;52.434;13.206;2024-01-06T08:58:22;62.00;;;24.73;;
20306;SDS011;10312;52.434;13.206;2024-01-06T09:00:49;58.67;;;25.48;;
20306;SDS011;10312;52.434;13.206;2024-01-06T09:03:17;55.33;;;24.15;;
20306;SDS011;10312;52.434;13.206;2024-01-06T09:05:44;59.85;;;25.55;;
20306;SDS011;10312;52.434;13.206;2024-01-06T09:08:11;59.63;;;25.52;;
20306;SDS011;10312;52.434;13.206;2024-01-06T09:10:38;63.00;;;25.98;;
20306;SDS011;10312;52.434;13.206;2024-01-06T09:13:05;61.65;;;26.83;;
20306;SDS011;10312;52.434;13.206;2024-01-06T09:15:32;59.83;;;25.20;;
20306;SDS011;10312;52.434;13.206;2024-01-06T09:17:59;60.67;;;25.67;;
20306;SDS011;10312;52.434;13.206;2024-01-06T09:20:26;64.45;;;25.70;;
20306;SDS011;10312;52.434;13.206;2024-01-06T09:22:53;59.42;;;25.17;;
20306;SDS011;10312;52.434;13.206;2024-01-06T09:25:21;61.35;;;26.60;;
20306;SDS011;10312;52.434;13.206;2024-01-06T09:27:51;61.92;;;26.33;;
20306;SDS011;10312;52.434;13.206;2024-01-06T09:30:19;64.78;;;27.10;;
20306;SDS011;10312;52.434;13.206;2024-01-06T09:32:47;55.22;;;24.40;;
20306;SDS011;10312;52.434;13.206;2024-01-06T09:35:13;56.78;;;24.83;;
20306;SDS011;10312;52.434;13.206;2024-01-06T09:37:41;57.80;;;24.33;;
20306;SDS011;10312;52.434;13.206;2024-01-06T09:40:09;53.03;;;24.45;;
20306;SDS011;10312;52.434;13.206;2024-01-06T09:42:38;60.13;;;24.73;;
20306;SDS011;10312;52.434;13.206;2024-01-06T09:45:04;59.85;;;26.70;;
20306;SDS011;10312;52.434;13.206;2024-01-06T09:47:33;60.63;;;25.13;;
20306;SDS011;10312;52.434;13.206;2024-01-06T09:50:01;60.50;;;24.02;;
20306;SDS011;10312;52.434;13.206;2024-01-06T09:52:32;57.35;;;24.55;;
20306;SDS011;10312;52.434;13.206;2024-01-06T09:54:59;58.75;;;24.00;;
20306;SDS011;10312;52.434;13.206;2024-01-06T09:57:26;57.65;;;25.30;;
20306;SDS011;10312;52.434;13.206;2024-01-06T09:59:53;56.90;;;23.55;;
20306;SDS011;10312;52.434;13.206;2024-01-06T10:02:21;55.50;;;23.80;;
20306;SDS011;10312;52.434;13.206;2024-01-06T10:04:49;53.38;;;24.02;;
20306;SDS011;10312;52.434;13.206;2024-01-06T10:07:16;56.90;;;24.52;;
20306;SDS011;10312;52.434;13.206;2024-01-06T10:09:43;55.88;;;24.25;;
20306;SDS011;10312;52.434;13.206;2024-01-06T10:12:09;59.22;;;26.02;;
20306;SDS011;10312;52.434;13.206;2024-01-06T10:14:37;54.08;;;24.35;;
20306;SDS011;10312;52.434;13.206;2024-01-06T10:17:05;53.75;;;25.75;;
20306;SDS011;10312;52.434;13.206;2024-01-06T10:19:34;50.58;;;24.17;;
20306;SDS011;10312;52.434;13.206;2024-01-06T10:22:02;52.03;;;23.63;;
20306;SDS011;10312;52.434;13.206;2024-01-06T10:24:29;52.03;;;22.95;;
20306;SDS011;10312;52.434;13.206;2024-01-06T10:26:57;54.25;;;23.85;;
20306;SDS011;10312;52.434;13.206;2024-01-06T10:29:25;50.80;;;22.75;;
20306;SDS011;10312;52.434;13.206;2024-01-06T10:31:53;53.85;;;25.60;;
20306;SDS011;10312;52.434;13.206;2024-01-06T10:34:22;49.92;;;23.70;;
20306;SDS011;10312;52.434;13.206;2024-01-06T10:36:50;54.03;;;23.73;;
20306;SDS011;10312;52.434;13.206;2024-01-06T10:39:19;57.10;;;24.65;;
20306;SDS011;10312;52.434;13.206;2024-01-06T10:41:49;52.33;;;23.63;;
20306;SDS011;10312;52.434;13.206;2024-01-06T10:44:18;54.85;;;24.15;;
20306;SDS011;10312;52.434;13.206;2024-01-06T10:46:45;51.20;;;24.10;;
20306;SDS011;10312;52.434;13.206;2024-01-06T10:49:14;54.47;;;25.85;;
20306;SDS011;10312;52.434;13.206;2024-01-06T10:51:41;53.65;;;24.70;;
20306;SDS011;10312;52.434;13.206;2024-01-06T10:54:07;54.95;;;24.50;;
20306;SDS011;10312;52.434;13.206;2024-01-06T10:56:37;49.78;;;23.15;;
20306;SDS011;10312;52.434;13.206;2024-01-06T10:59:05;54.28;;;24.70;;
20306;SDS011;10312;52.434;13.206;2024-01-06T11:01:34;49.03;;;23.95;;
20306;SDS011;10312;52.434;13.206;2024-01-06T11:04:02;50.17;;;24.38;;
20306;SDS011;10312;52.434;13.206;2024-01-06T11:06:33;47.40;;;22.58;;
20306;SDS011;10312;52.434;13.206;2024-01-06T11:09:14;48.22;;;23.88;;
20306;SDS011;10312;52.434;13.206;2024-01-06T11:11:46;51.58;;;23.52;;
20306;SDS011;10312;52.434;13.206;2024-01-06T11:14:23;48.03;;;23.05;;
20306;SDS011;10312;52.434;13.206;2024-01-06T11:16:51;48.15;;;24.15;;
20306;SDS011;10312;52.434;13.206;2024-01-06T11:22:46;48.28;;;23.02;;
20306;SDS011;10312;52.434;13.206;2024-01-06T11:25:17;52.00;;;24.50;;
20306;SDS011;10312;52.434;13.206;2024-01-06T11:27:47;48.55;;;23.55;;
20306;SDS011;10312;52.434;13.206;2024-01-06T11:30:19;46.72;;;22.98;;
20306;SDS011;10312;52.434;13.206;2024-01-06T11:32:53;45.92;;;22.85;;
20306;SDS011;10312;52.434;13.206;2024-01-06T11:35:20;46.45;;;21.85;;
20306;SDS011;10312;52.434;13.206;2024-01-06T11:40:21;42.58;;;21.02;;
20306;SDS011;10312;52.434;13.206;2024-01-06T11:42:57;47.25;;;22.35;;
20306;SDS011;10312;52.434;13.206;2024-01-06T11:45:24;45.90;;;23.15;;
20306;SDS011;10312;52.434;13.206;2024-01-06T11:47:54;45.47;;;23.05;;
20306;SDS011;10312;52.434;13.206;2024-01-06T11:50:22;45.53;;;23.23;;
20306;SDS011;10312;52.434;13.206;2024-01-06T11:52:50;47.22;;;23.60;;
20306;SDS011;10312;52.434;13.206;2024-01-06T11:55:17;45.28;;;22.83;;
20306;SDS011;10312;52.434;13.206;2024-01-06T11:57:45;48.08;;;23.58;;
20306;SDS011;10312;52.434;13.206;2024-01-06T12:00:12;44.33;;;22.92;;
20306;SDS011;10312;52.434;13.206;2024-01-06T12:02:42;46.38;;;22.48;;
20306;SDS011;10312;52.434;13.206;2024-01-06T12:05:15;43.67;;;22.40;;
20306;SDS011;10312;52.434;13.206;2024-01-06T12:07:54;47.45;;;23.55;;
20306;SDS011;10312;52.434;13.206;2024-01-06T12:10:28;46.05;;;22.33;;
20306;SDS011;10312;52.434;13.206;2024-01-06T12:13:02;49.00;;;24.27;;
20306;SDS011;10312;52.434;13.206;2024-01-06T12:15:31;46.40;;;23.70;;
20306;SDS011;10312;52.434;13.206;2024-01-06T12:18:02;46.63;;;23.00;;
20306;SDS011;10312;52.434;13.206;2024-01-06T12:20:29;40.70;;;21.70;;
20306;SDS011;10312;52.434;13.206;2024-01-06T12:22:56;43.25;;;23.17;;
20306;SDS011;10312;52.434;13.206;2024-01-06T12:25:23;45.10;;;21.85;;
20306;SDS011;10312;52.434;13.206;2024-01-06T12:27:51;42.53;;;22.90;;
20306;SDS011;10312;52.434;13.206;2024-01-06T12:30:21;48.67;;;23.25;;
20306;SDS011;10312;52.434;13.206;2024-01-06T12:32:49;42.60;;;22.35;;
20306;SDS011;10312;52.434;13.206;2024-01-06T12:35:16;44.70;;;22.50;;
20306;SDS011;10312;52.434;13.206;2024-01-06T12:37:43;40.25;;;22.38;;
20306;SDS011;10312;52.434;13.206;2024-01-06T12:40:14;43.00;;;22.35;;
20306;SDS011;10312;52.434;13.206;2024-01-06T12:42:44;44.53;;;22.50;;
20306;SDS011;10312;52.434;13.206;2024-01-06T12:45:11;40.83;;;21.48;;
20306;SDS011;10312;52.434;13.206;2024-01-06T12:47:40;39.20;;;20.23;;
20306;SDS011;10312;52.434;13.206;2024-01-06T12:50:07;47.25;;;21.90;;
20306;SDS011;10312;52.434;13.206;2024-01-06T12:52:35;43.22;;;21.70;;
20306;SDS011;10312;52.434;13.206;2024-01-06T12:55:01;45.30;;;22.42;;
20306;SDS011;10312;52.434;13.206;2024-01-06T12:57:30;47.38;;;23.90;;
20306;SDS011;10312;52.434;13.206;2024-01-06T12:59:57;41.00;;;22.08;;
20306;SDS011;10312;52.434;13.206;2024-01-06T13:02:24;43.67;;;22.33;;
20306;SDS011;10312;52.434;13.206;2024-01-06T13:04:50;42.10;;;22.02;;
20306;SDS011;10312;52.434;13.206;2024-01-06T13:07:17;39.53;;;21.25;;
20306;SDS011;10312;52.434;13.206;2024-01-06T13:09:44;37.72;;;20.67;;
20306;SDS011;10312;52.434;13.206;2024-01-06T13:12:11;44.38;;;21.67;;
20306;SDS011;10312;52.434;13.206;2024-01-06T13:14:38;40.35;;;21.45;;
20306;SDS011;10312;52.434;13.206;2024-01-06T13:17:05;43.85;;;21.50;;
20306;SDS011;10312;52.434;13.206;2024-01-06T13:19:32;44.28;;;22.65;;
20306;SDS011;10312;52.434;13.206;2024-01-06T13:22:00;42.85;;;21.17;;
20306;SDS011;10312;52.434;13.206;2024-01-06T13:24:27;42.22;;;22.33;;
20306;SDS011;10312;52.434;13.206;2024-01-06T13:26:54;45.40;;;23.25;;
20306;SDS011;10312;52.434;13.206;2024-01-06T13:29:21;47.72;;;23.23;;
20306;SDS011;10312;52.434;13.206;2024-01-06T13:31:48;45.17;;;23.60;;
20306;SDS011;10312;52.434;13.206;2024-01-06T13:34:15;45.08;;;22.95;;
20306;SDS011;10312;52.434;13.206;2024-01-06T13:36:43;41.38;;;22.45;;
20306;SDS011;10312;52.434;13.206;2024-01-06T13:39:11;43.53;;;21.00;;
20306;SDS011;10312;52.434;13.206;2024-01-06T13:41:47;42.63;;;22.40;;
20306;SDS011;10312;52.434;13.206;2024-01-06T13:44:16;40.95;;;21.05;;
20306;SDS011;10312;52.434;13.206;2024-01-06T13:46:43;46.10;;;22.05;;
20306;SDS011;10312;52.434;13.206;2024-01-06T13:49:11;44.55;;;23.08;;
20306;SDS011;10312;52.434;13.206;2024-01-06T13:51:39;45.22;;;24.02;;
20306;SDS011;10312;52.434;13.206;2024-01-06T13:54:06;41.95;;;22.00;;
20306;SDS011;10312;52.434;13.206;2024-01-06T13:56:33;49.25;;;25.27;;
20306;SDS011;10312;52.434;13.206;2024-01-06T13:58:59;41.63;;;21.90;;
20306;SDS011;10312;52.434;13.206;2024-01-06T14:01:26;46.72;;;22.85;;
20306;SDS011;10312;52.434;13.206;2024-01-06T14:03:53;46.53;;;22.98;;
20306;SDS011;10312;52.434;13.206;2024-01-06T14:06:25;40.90;;;20.42;;
20306;SDS011;10312;52.434;13.206;2024-01-06T14:08:52;40.88;;;20.63;;
20306;SDS011;10312;52.434;13.206;2024-01-06T14:11:19;37.35;;;19.88;;
20306;SDS011;10312;52.434;13.206;2024-01-06T14:13:45;40.70;;;20.73;;
20306;SDS011;10312;52.434;13.206;2024-01-06T14:16:15;40.97;;;19.85;;